Georgetown, Iowa
Current Conditions -  °F | °C
As of 7:16 PM on Friday 24 Oct 2014 (Local Time) from KOTM Reporting Station
Broken Clouds Broken Clouds  
Wind Chill: 62°   Ceiling: 3600
Heat Index: 62°   Visibility: 7mi
Dew Point: 59°   Wind: 3mph
Humidity: 90%   Direction: 280°W
Pressure: 29.94"   Gusts: NA
Location:  41.0299°N, 92.7795°W
Report Text: KOTM 250016Z AUTO 28003KT 7SM FEW022 SCT029 BKN036 17/15 A2994 RMK AO2 T01670150
Loading
Personal Weather Stations






























Interactive Weather Map
Tropical Storm Tracking
New forecast layout! Learn more

10-Day Weather Forecast

Advertisements
Track Severe Weather on mobile